createdAt,value
2022-10-30T00:02:07.747Z,83.68
2022-10-30T00:04:40.672Z,84.02
2022-10-30T00:07:10.780Z,84.12
2022-10-30T00:09:41.238Z,84.17
2022-10-30T00:12:09.417Z,84.19
2022-10-30T00:14:37.578Z,84.07
2022-10-30T00:17:05.850Z,84.13
2022-10-30T00:19:35.266Z,84.08
2022-10-30T00:24:33.571Z,83.68
2022-10-30T00:27:04.449Z,83.72
2022-10-30T00:29:32.785Z,83.88
2022-10-30T00:32:03.860Z,83.78
2022-10-30T00:34:33.695Z,83.90
2022-10-30T00:37:03.080Z,84.03
2022-10-30T00:39:31.599Z,84.32
2022-10-30T00:42:02.738Z,84.17
2022-10-30T00:44:47.386Z,83.65
2022-10-30T00:47:20.027Z,83.46
2022-10-30T00:50:04.674Z,83.23
2022-10-30T00:52:59.477Z,83.41
2022-10-30T00:55:31.967Z,83.31
2022-10-30T00:58:05.015Z,83.32
2022-10-30T01:05:54.170Z,83.10
2022-10-30T01:09:27.818Z,83.46
2022-10-30T01:11:59.362Z,83.29
2022-10-30T06:40:13.937Z,83.67
2022-10-30T06:44:56.940Z,83.57
2022-10-30T06:46:44.045Z,83.91
2022-10-30T06:49:12.698Z,83.96
2022-10-30T06:51:41.347Z,83.60
2022-10-30T06:54:09.614Z,83.60
2022-10-30T06:56:42.233Z,83.96
2022-10-30T06:59:29.853Z,83.37
2022-10-30T07:02:21.754Z,83.31
2022-10-30T07:04:55.369Z,82.92
2022-10-30T07:07:24.095Z,82.96
2022-10-30T07:09:53.069Z,83.07
2022-10-30T07:12:29.682Z,83.32
2022-10-30T07:15:02.211Z,83.29
2022-10-30T07:17:41.849Z,83.07
2022-10-30T07:20:20.160Z,82.75
2022-10-30T07:22:48.495Z,83.47
2022-10-30T07:25:17.195Z,83.50
2022-10-30T07:27:57.351Z,83.13
2022-10-30T07:30:38.458Z,83.02
2022-10-30T07:33:27.510Z,83.50
2022-10-30T07:36:16.558Z,83.08
2022-10-30T07:38:53.322Z,82.97
2022-10-30T07:41:49.857Z,83.49
2022-10-30T07:44:38.550Z,82.93
2022-10-30T07:47:19.869Z,82.88
2022-10-30T07:50:01.663Z,82.74
2022-10-30T07:52:33.626Z,82.64
2022-10-30T07:55:02.243Z,82.40
2022-10-30T07:57:53.040Z,82.41
2022-10-30T08:00:41.183Z,82.09
2022-10-30T08:03:26.092Z,81.95
2022-10-30T08:06:03.578Z,81.98
2022-10-30T08:08:42.041Z,81.96
2022-10-30T08:11:29.081Z,81.99
2022-10-30T08:13:59.742Z,82.01
2022-10-30T08:16:29.600Z,81.40
2022-10-30T08:18:58.996Z,81.27
2022-10-30T08:21:27.365Z,80.83
2022-10-30T08:24:01.286Z,80.15
2022-10-30T08:26:32.326Z,79.41
2022-10-30T08:29:00.585Z,78.50
2022-10-30T08:31:32.152Z,78.08
2022-10-30T08:34:04.395Z,77.27
2022-10-30T08:36:51.792Z,76.36
2022-10-30T08:39:21.410Z,73.78
2022-10-30T08:42:00.392Z,70.20
2022-10-30T08:44:34.701Z,71.13
2022-10-30T08:47:19.469Z,70.90
2022-10-30T08:49:48.524Z,66.32
2022-10-30T08:52:22.064Z,62.47
2022-10-30T08:54:56.683Z,61.68
2022-10-30T08:57:27.842Z,60.80
2022-10-30T08:59:58.381Z,59.99
2022-10-30T09:02:46.674Z,57.72
2022-10-30T09:05:38.470Z,57.13
2022-10-30T09:08:29.720Z,56.04
2022-10-30T09:11:07.571Z,56.95
2022-10-30T09:13:36.707Z,56.66
2022-10-30T09:16:08.688Z,55.43
2022-10-30T09:18:41.048Z,55.87
2022-10-30T09:21:09.338Z,53.99
2022-10-30T09:23:44.870Z,53.22
2022-10-30T09:26:31.765Z,54.22
2022-10-30T09:29:10.498Z,55.19
2022-10-30T09:31:57.390Z,55.41
2022-10-30T09:34:29.280Z,55.42
2022-10-30T09:37:21.148Z,55.15
2022-10-30T09:39:53.137Z,54.60
2022-10-30T09:42:38.107Z,53.14
2022-10-30T09:45:41.301Z,53.16
2022-10-30T09:48:36.477Z,53.55
2022-10-30T09:51:25.452Z,55.24
2022-10-30T09:54:09.187Z,55.26
2022-10-30T09:56:47.612Z,56.39
2022-10-30T09:59:30.295Z,55.01
2022-10-30T10:02:05.360Z,55.16
2022-10-30T10:04:43.147Z,55.25
2022-10-30T10:07:23.682Z,53.52
2022-10-30T10:10:19.327Z,54.77
2022-10-30T10:13:06.106Z,55.73
2022-10-30T10:15:41.500Z,56.40
2022-10-30T10:18:19.302Z,57.21
2022-10-30T10:20:53.581Z,56.73
2022-10-30T10:23:31.577Z,56.82
2022-10-30T10:26:05.770Z,57.07
2022-10-30T10:28:48.891Z,57.32
2022-10-30T10:31:30.816Z,58.31
2022-10-30T10:34:19.500Z,59.21
2022-10-30T10:36:57.347Z,60.07
2022-10-30T10:39:41.804Z,59.81
2022-10-30T10:42:21.003Z,61.15
2022-10-30T10:45:06.026Z,61.25
2022-10-30T10:48:02.823Z,62.35
2022-10-30T10:50:35.670Z,62.58
2022-10-30T10:53:08.445Z,63.84
2022-10-30T10:55:40.146Z,63.91
2022-10-30T10:58:23.272Z,65.10
2022-10-30T11:00:52.368Z,65.94
2022-10-30T11:03:26.032Z,66.07
2022-10-30T11:05:58.494Z,66.39
2022-10-30T11:08:28.624Z,66.86
2022-10-30T11:11:01.171Z,66.70
2022-10-30T11:13:32.212Z,66.39
2022-10-30T11:16:11.353Z,66.08
2022-10-30T11:18:40.406Z,66.30
2022-10-30T11:21:11.854Z,65.94
2022-10-30T11:23:41.837Z,65.89
2022-10-30T11:26:28.793Z,65.63
2022-10-30T11:29:00.554Z,66.63
2022-10-30T11:31:34.892Z,67.26
2022-10-30T11:34:26.086Z,67.34
2022-10-30T11:36:56.261Z,67.73
2022-10-30T11:39:26.199Z,67.43
2022-10-30T11:42:06.204Z,68.10
2022-10-30T11:44:40.669Z,68.36
2022-10-30T11:47:10.246Z,68.68
2022-10-30T11:49:44.883Z,67.79
2022-10-30T11:52:15.224Z,67.15
2022-10-30T11:54:48.456Z,67.03
2022-10-30T11:57:23.746Z,67.18
2022-10-30T12:00:00.615Z,67.21
2022-10-30T12:02:43.968Z,66.87
2022-10-30T12:05:32.690Z,67.54
2022-10-30T12:08:19.531Z,66.25
2022-10-30T12:10:58.866Z,66.85
2022-10-30T12:13:32.673Z,66.66
2022-10-30T12:16:17.011Z,67.06
2022-10-30T12:18:58.263Z,67.88
2022-10-30T12:21:27.348Z,67.37
2022-10-30T12:23:58.543Z,68.22
2022-10-30T12:26:27.654Z,67.44
2022-10-30T12:29:02.359Z,67.20
2022-10-30T12:31:42.514Z,67.90
2022-10-30T12:34:28.386Z,68.29
2022-10-30T12:37:04.828Z,68.47
2022-10-30T12:39:45.647Z,68.40
2022-10-30T12:42:16.854Z,68.88
2022-10-30T12:44:50.036Z,68.47
2022-10-30T12:47:27.873Z,67.87
2022-10-30T12:50:02.020Z,68.47
2022-10-30T12:52:36.360Z,68.46
2022-10-30T12:55:14.584Z,68.07
2022-10-30T12:57:46.880Z,68.41
2022-10-30T13:00:17.357Z,68.21
2022-10-30T13:02:55.629Z,68.32
2022-10-30T13:05:34.007Z,68.38
2022-10-30T13:08:12.511Z,68.90
2022-10-30T13:10:44.585Z,68.01
2022-10-30T13:13:16.831Z,68.65
2022-10-30T13:15:48.847Z,68.62
2022-10-30T13:18:19.637Z,68.41
2022-10-30T13:21:01.867Z,67.96
2022-10-30T13:23:39.114Z,68.17
2022-10-30T13:26:17.598Z,68.07
2022-10-30T13:28:53.598Z,68.82
2022-10-30T13:31:32.813Z,68.98
2022-10-30T13:34:06.714Z,68.33
2022-10-30T13:39:28.634Z,68.33
2022-10-30T13:42:39.215Z,69.54
2022-10-30T13:45:27.693Z,70.17
2022-10-30T13:48:09.264Z,70.08
2022-10-30T13:50:50.549Z,70.17
2022-10-30T13:53:24.455Z,70.11
2022-10-30T13:55:53.537Z,69.76
2022-10-30T13:58:27.084Z,69.78
2022-10-30T14:01:02.610Z,70.25
2022-10-30T14:03:44.832Z,69.45
2022-10-30T14:06:23.618Z,70.12
2022-10-30T14:09:00.761Z,69.63
2022-10-30T14:11:29.234Z,69.54
2022-10-30T14:13:59.362Z,69.38
2022-10-30T14:16:43.863Z,69.50
2022-10-30T14:19:14.916Z,69.35
2022-10-30T14:21:54.832Z,69.97
2022-10-30T14:24:29.439Z,70.09
2022-10-30T14:27:12.307Z,70.31
2022-10-30T14:29:52.235Z,70.35
2022-10-30T14:32:49.318Z,70.27
2022-10-30T14:35:37.314Z,71.20
2022-10-30T14:38:36.130Z,71.14
2022-10-30T14:41:36.006Z,71.40
2022-10-30T14:44:21.150Z,71.72
2022-10-30T14:47:02.125Z,71.52
2022-10-30T14:49:44.908Z,72.25
2022-10-30T14:52:23.139Z,71.74
2022-10-30T14:55:03.020Z,71.96
2022-10-30T14:57:48.314Z,71.98
2022-10-30T15:00:47.707Z,72.48
2022-10-30T15:03:33.919Z,72.08
2022-10-30T15:06:07.754Z,71.96
2022-10-30T15:08:57.464Z,72.41
2022-10-30T15:11:36.961Z,72.63
2022-10-30T15:14:21.322Z,72.91
2022-10-30T15:16:52.239Z,72.73
2022-10-30T15:19:24.797Z,73.09
2022-10-30T15:21:55.526Z,73.16
2022-10-30T15:24:32.139Z,73.32
2022-10-30T15:27:03.522Z,73.16
2022-10-30T15:29:36.983Z,73.48
2022-10-30T15:32:16.644Z,73.29
2022-10-30T15:34:55.193Z,73.26
2022-10-30T15:37:24.185Z,73.48
2022-10-30T15:40:11.625Z,73.70
2022-10-30T15:42:40.899Z,73.81
2022-10-30T15:45:17.581Z,73.98
2022-10-30T15:47:49.958Z,73.92
2022-10-30T15:50:20.066Z,74.45
2022-10-30T15:52:48.656Z,74.47
2022-10-30T15:55:22.186Z,74.61
2022-10-30T15:58:08.141Z,75.03
2022-10-30T16:00:38.474Z,75.40
2022-10-30T16:03:08.975Z,75.53
2022-10-30T16:05:37.367Z,75.67
2022-10-30T16:08:13.241Z,75.55
2022-10-30T16:10:44.592Z,75.76
2022-10-30T16:13:18.451Z,76.17
2022-10-30T16:15:50.268Z,76.03
2022-10-30T16:18:22.949Z,76.17
2022-10-30T16:20:53.852Z,76.30
2022-10-30T16:23:24.513Z,76.42
2022-10-30T16:25:58.192Z,76.76
2022-10-30T16:28:31.032Z,77.03
2022-10-30T16:31:02.533Z,77.51
2022-10-30T16:33:33.575Z,77.97
2022-10-30T16:36:06.180Z,78.15
2022-10-30T16:38:37.776Z,78.06
2022-10-30T16:41:13.414Z,77.95
2022-10-30T16:43:44.713Z,77.61
2022-10-30T16:46:40.281Z,77.57
2022-10-30T16:49:15.003Z,77.71
2022-10-30T16:51:44.881Z,77.69
2022-10-30T16:54:26.301Z,78.00
2022-10-30T16:56:58.129Z,77.92
2022-10-30T16:59:32.823Z,77.93
2022-10-30T17:02:06.234Z,78.29
2022-10-30T17:04:35.752Z,78.20
2022-10-30T17:07:16.045Z,78.20
2022-10-30T17:09:44.557Z,78.65
2022-10-30T17:12:19.156Z,78.75
2022-10-30T17:15:04.293Z,78.86
2022-10-30T17:17:35.165Z,78.83
2022-10-30T17:20:06.788Z,79.04
2022-10-30T17:22:35.285Z,79.43
2022-10-30T17:25:15.631Z,79.61
2022-10-30T17:27:48.285Z,79.65
2022-10-30T17:30:37.964Z,80.13
2022-10-30T17:33:25.886Z,80.53
2022-10-30T17:38:28.099Z,80.66
2022-10-30T17:40:56.311Z,81.04
2022-10-30T17:43:30.194Z,80.80
2022-10-30T17:45:58.509Z,81.07
2022-10-30T17:48:30.034Z,81.03
2022-10-30T17:50:58.890Z,81.31
2022-10-30T17:53:28.212Z,81.17
2022-10-30T17:56:01.066Z,81.49
2022-10-30T17:58:31.058Z,81.65
2022-10-30T18:00:59.749Z,81.46
2022-10-30T18:03:28.074Z,81.39
2022-10-30T18:05:56.561Z,82.07
2022-10-30T18:08:26.029Z,81.83
2022-10-30T18:10:54.478Z,81.99
2022-10-30T18:13:22.948Z,82.05
2022-10-30T18:15:59.468Z,81.89
2022-10-30T18:18:27.987Z,82.22
2022-10-30T18:20:56.339Z,82.28
2022-10-30T18:26:16.908Z,82.05
2022-10-30T18:28:45.178Z,82.01
2022-10-30T18:31:18.777Z,81.73
2022-10-30T18:33:47.490Z,81.71
2022-10-30T18:36:18.465Z,81.79
2022-10-30T18:38:46.869Z,82.10
2022-10-30T18:41:17.319Z,82.29
2022-10-30T18:43:47.083Z,82.13
2022-10-30T18:46:18.318Z,82.18
2022-10-30T18:48:46.813Z,82.76
2022-10-30T18:51:19.873Z,82.22
2022-10-30T18:53:52.472Z,82.96
2022-10-30T18:56:22.070Z,82.86
2022-10-30T18:58:53.571Z,82.92
2022-10-30T19:01:26.636Z,82.50
2022-10-30T19:03:54.967Z,82.58
2022-10-30T19:06:25.638Z,82.55
2022-10-30T19:08:54.613Z,82.67
2022-10-30T19:11:25.245Z,82.93
2022-10-30T19:13:54.500Z,82.54
2022-10-30T19:16:24.568Z,82.80
2022-10-30T19:18:55.246Z,82.62
2022-10-30T19:21:25.623Z,82.44
2022-10-30T19:23:55.442Z,82.47
2022-10-30T19:26:24.181Z,82.27
2022-10-30T19:28:52.428Z,82.68
2022-10-30T19:31:21.191Z,82.83
2022-10-30T19:33:53.134Z,83.17
2022-10-30T19:36:34.028Z,82.94
2022-10-30T19:39:08.643Z,83.45
2022-10-30T19:41:38.990Z,82.82
2022-10-30T19:44:07.647Z,83.24
2022-10-30T19:46:36.256Z,83.65
2022-10-30T19:49:15.979Z,83.12
2022-10-30T19:51:45.718Z,83.25
2022-10-30T19:54:14.313Z,83.12
2022-10-30T19:56:44.110Z,82.94
2022-10-30T19:59:14.691Z,83.30
2022-10-30T20:01:44.757Z,83.31
2022-10-30T20:04:13.452Z,83.46
2022-10-30T20:06:42.881Z,83.40
2022-10-30T20:09:13.679Z,82.93
2022-10-30T20:11:42.573Z,83.29
2022-10-30T20:14:10.789Z,83.13
2022-10-30T20:16:39.887Z,83.05
2022-10-30T20:19:27.534Z,83.31
2022-10-30T20:21:55.957Z,83.69
2022-10-30T20:24:25.734Z,83.15
2022-10-30T20:26:56.807Z,83.03
2022-10-30T20:29:26.049Z,83.41
2022-10-30T20:31:54.363Z,82.99
2022-10-30T20:34:22.662Z,83.08
2022-10-30T20:36:50.854Z,82.91
2022-10-30T20:39:19.364Z,82.87
2022-10-30T20:41:49.142Z,83.50
2022-10-30T20:44:17.374Z,83.34
2022-10-30T20:46:46.378Z,83.24
2022-10-30T20:49:18.415Z,83.06
2022-10-30T20:51:47.485Z,82.75
2022-10-30T20:54:15.875Z,82.89
2022-10-30T20:56:46.043Z,83.09
2022-10-30T20:59:16.001Z,82.87
2022-10-30T21:01:44.391Z,83.58
2022-10-30T21:04:12.660Z,83.33
2022-10-30T21:06:41.121Z,83.17
2022-10-30T21:09:09.636Z,83.04
2022-10-30T21:11:38.803Z,83.15
2022-10-30T21:14:07.101Z,82.94
2022-10-30T21:16:36.957Z,82.94
2022-10-30T21:19:05.475Z,82.73
2022-10-30T21:21:34.217Z,82.28
2022-10-30T21:24:02.692Z,82.59
2022-10-30T21:26:31.064Z,83.01
2022-10-30T21:28:59.268Z,82.64
2022-10-30T21:31:27.451Z,82.56
2022-10-30T21:33:57.308Z,82.38
2022-10-30T21:36:25.452Z,82.32
2022-10-30T21:38:53.631Z,82.48
2022-10-30T21:41:24.952Z,82.55
2022-10-30T21:43:54.690Z,82.30
2022-10-30T21:46:24.846Z,82.29
2022-10-30T21:48:53.717Z,82.69
2022-10-30T21:51:26.583Z,82.59
2022-10-30T21:53:57.561Z,82.43
2022-10-30T21:56:28.026Z,82.64
2022-10-30T21:58:56.951Z,83.05
2022-10-30T22:01:28.494Z,83.09
2022-10-30T22:03:57.814Z,83.12
2022-10-30T22:06:27.941Z,82.69
2022-10-30T22:08:57.945Z,82.50
2022-10-30T22:11:28.154Z,82.84
2022-10-30T22:13:57.886Z,82.78
2022-10-30T22:16:28.471Z,83.76
2022-10-30T22:18:58.180Z,83.09
2022-10-30T22:21:28.148Z,82.88
2022-10-30T22:23:56.722Z,82.65
2022-10-30T22:26:25.309Z,83.02
2022-10-30T22:28:54.882Z,82.82
2022-10-30T22:31:24.540Z,82.71
2022-10-30T22:33:53.413Z,82.84
2022-10-30T22:36:23.507Z,82.41
2022-10-30T22:38:59.491Z,82.38
2022-10-30T22:41:31.300Z,82.64
2022-10-30T22:44:03.712Z,82.67
2022-10-30T22:46:32.668Z,82.56
2022-10-30T22:49:01.311Z,82.93
2022-10-30T22:51:29.571Z,82.72
2022-10-30T22:54:01.382Z,82.59
2022-10-30T22:56:31.843Z,82.82
2022-10-30T22:59:02.902Z,82.44
2022-10-30T23:01:33.313Z,82.95
2022-10-30T23:04:02.831Z,82.84
2022-10-30T23:06:32.223Z,82.60
2022-10-30T23:09:03.853Z,82.53
2022-10-30T23:11:33.266Z,82.59
2022-10-30T23:14:02.078Z,82.34
2022-10-30T23:16:31.095Z,82.24
2022-10-30T23:19:00.988Z,82.33
2022-10-30T23:21:31.747Z,82.07
2022-10-30T23:24:04.465Z,81.81
2022-10-30T23:26:34.528Z,82.16
2022-10-30T23:29:03.047Z,82.38
2022-10-30T23:31:33.660Z,82.66
2022-10-30T23:34:04.131Z,82.41
2022-10-30T23:36:32.367Z,82.68
2022-10-30T23:39:03.705Z,82.41
2022-10-30T23:41:34.506Z,82.38
2022-10-30T23:44:05.690Z,82.59
2022-10-30T23:46:34.745Z,82.59
2022-10-30T23:49:03.869Z,82.28
2022-10-30T23:51:33.752Z,82.39
2022-10-30T23:54:03.934Z,82.42
2022-10-30T23:56:32.218Z,82.57
2022-10-30T23:59:00.720Z,82.87
